sensor_id;sensor_type;location;lat;lon;timestamp;temperature;humidity
38241;DHT22;24037;49.536;8.500;2023-02-26T00:00:30;-1.90;99.90
38241;DHT22;24037;49.536;8.500;2023-02-26T00:02:57;-1.90;99.90
38241;DHT22;24037;49.536;8.500;2023-02-26T00:05:23;-2.00;99.90
38241;DHT22;24037;49.536;8.500;2023-02-26T00:07:50;-2.00;99.90
38241;DHT22;24037;49.536;8.500;2023-02-26T00:10:16;-2.00;99.90
38241;DHT22;24037;49.536;8.500;2023-02-26T00:12:42;-2.10;99.90
38241;DHT22;24037;49.536;8.500;2023-02-26T00:15:09;-2.10;99.90
38241;DHT22;24037;49.536;8.500;2023-02-26T00:20:08;-2.20;99.90
38241;DHT22;24037;49.536;8.500;2023-02-26T00:22:35;-2.30;99.90
38241;DHT22;24037;49.536;8.500;2023-02-26T00:25:01;-2.20;99.90
38241;DHT22;24037;49.536;8.500;2023-02-26T00:27:27;-2.30;99.90
38241;DHT22;24037;49.536;8.500;2023-02-26T00:29:53;-2.30;99.90
38241;DHT22;24037;49.536;8.500;2023-02-26T00:32:19;-2.30;99.90
38241;DHT22;24037;49.536;8.500;2023-02-26T00:34:46;-2.30;99.90
38241;DHT22;24037;49.536;8.500;2023-02-26T00:37:25;-2.30;99.90
38241;DHT22;24037;49.536;8.500;2023-02-26T00:42:25;-2.00;99.90
38241;DHT22;24037;49.536;8.500;2023-02-26T00:44:51;-2.00;99.90
38241;DHT22;24037;49.536;8.500;2023-02-26T00:47:28;-2.00;99.90
38241;DHT22;24037;49.536;8.500;2023-02-26T00:52:34;-2.10;99.90
38241;DHT22;24037;49.536;8.500;2023-02-26T00:55:01;-2.10;99.90
38241;DHT22;24037;49.536;8.500;2023-02-26T00:57:27;-2.00;99.90
38241;DHT22;24037;49.536;8.500;2023-02-26T00:59:53;-2.00;99.90
38241;DHT22;24037;49.536;8.500;2023-02-26T01:02:19;-2.00;99.90
38241;DHT22;24037;49.536;8.500;2023-02-26T01:04:45;-2.00;99.90
38241;DHT22;24037;49.536;8.500;2023-02-26T01:07:13;-2.00;99.90
38241;DHT22;24037;49.536;8.500;2023-02-26T01:09:40;-2.10;99.90
38241;DHT22;24037;49.536;8.500;2023-02-26T01:12:06;-2.10;99.90
38241;DHT22;24037;49.536;8.500;2023-02-26T01:14:33;-2.10;99.90
38241;DHT22;24037;49.536;8.500;2023-02-26T01:20:15;-2.10;99.90
38241;DHT22;24037;49.536;8.500;2023-02-26T01:22:54;-2.10;99.90
38241;DHT22;24037;49.536;8.500;2023-02-26T01:25:29;-2.10;99.90
38241;DHT22;24037;49.536;8.500;2023-02-26T01:27:57;-2.20;99.90
38241;DHT22;24037;49.536;8.500;2023-02-26T01:30:23;-2.20;99.90
38241;DHT22;24037;49.536;8.500;2023-02-26T01:32:58;-2.10;99.90
38241;DHT22;24037;49.536;8.500;2023-02-26T01:37:56;-1.80;99.90
38241;DHT22;24037;49.536;8.500;2023-02-26T01:43:06;-1.70;99.90
38241;DHT22;24037;49.536;8.500;2023-02-26T01:45:34;-1.60;99.90
38241;DHT22;24037;49.536;8.500;2023-02-26T01:48:17;-1.60;99.90
38241;DHT22;24037;49.536;8.500;2023-02-26T01:50:46;-1.50;99.90
38241;DHT22;24037;49.536;8.500;2023-02-26T01:53:17;-1.50;99.90
38241;DHT22;24037;49.536;8.500;2023-02-26T01:55:44;-1.40;99.90
38241;DHT22;24037;49.536;8.500;2023-02-26T01:58:10;-1.40;99.90
38241;DHT22;24037;49.536;8.500;2023-02-26T02:00:37;-1.40;99.90
38241;DHT22;24037;49.536;8.500;2023-02-26T02:03:03;-1.40;99.90
38241;DHT22;24037;49.536;8.500;2023-02-26T02:05:32;-1.40;99.90
38241;DHT22;24037;49.536;8.500;2023-02-26T02:07:59;-1.30;99.90
38241;DHT22;24037;49.536;8.500;2023-02-26T02:10:25;-1.20;99.90
38241;DHT22;24037;49.536;8.500;2023-02-26T02:13:02;-1.30;99.90
38241;DHT22;24037;49.536;8.500;2023-02-26T02:18:06;-1.30;99.90
38241;DHT22;24037;49.536;8.500;2023-02-26T02:20:41;-1.30;99.90
38241;DHT22;24037;49.536;8.500;2023-02-26T02:33:17;-1.40;99.90
38241;DHT22;24037;49.536;8.500;2023-02-26T02:35:45;-1.40;99.90
38241;DHT22;24037;49.536;8.500;2023-02-26T02:38:18;-1.50;99.90
38241;DHT22;24037;49.536;8.500;2023-02-26T02:40:46;-1.50;99.90
38241;DHT22;24037;49.536;8.500;2023-02-26T02:43:17;-1.50;99.90
38241;DHT22;24037;49.536;8.500;2023-02-26T02:45:46;-1.50;99.90
38241;DHT22;24037;49.536;8.500;2023-02-26T02:50:45;-1.60;99.90
38241;DHT22;24037;49.536;8.500;2023-02-26T02:53:16;-1.60;99.90
38241;DHT22;24037;49.536;8.500;2023-02-26T02:55:46;-1.70;99.90
38241;DHT22;24037;49.536;8.500;2023-02-26T02:58:15;-1.70;99.90
38241;DHT22;24037;49.536;8.500;2023-02-26T03:00:48;-1.70;99.90
38241;DHT22;24037;49.536;8.500;2023-02-26T03:05:41;-1.80;99.90
38241;DHT22;24037;49.536;8.500;2023-02-26T03:08:08;-1.70;99.90
38241;DHT22;24037;49.536;8.500;2023-02-26T03:10:35;-1.60;99.90
38241;DHT22;24037;49.536;8.500;2023-02-26T03:13:02;-1.60;99.90
38241;DHT22;24037;49.536;8.500;2023-02-26T03:15:32;-1.50;99.90
38241;DHT22;24037;49.536;8.500;2023-02-26T03:18:05;-1.50;99.90
38241;DHT22;24037;49.536;8.500;2023-02-26T03:20:35;-1.40;99.90
38241;DHT22;24037;49.536;8.500;2023-02-26T03:23:15;-1.40;99.90
38241;DHT22;24037;49.536;8.500;2023-02-26T03:25:50;-1.40;99.90
38241;DHT22;24037;49.536;8.500;2023-02-26T03:28:22;-1.50;99.90
38241;DHT22;24037;49.536;8.500;2023-02-26T03:35:54;-1.40;99.90
38241;DHT22;24037;49.536;8.500;2023-02-26T03:38:25;-1.40;99.90
38241;DHT22;24037;49.536;8.500;2023-02-26T03:40:59;-1.50;99.90
38241;DHT22;24037;49.536;8.500;2023-02-26T03:43:41;-1.50;99.90
38241;DHT22;24037;49.536;8.500;2023-02-26T03:46:13;-1.40;99.90
38241;DHT22;24037;49.536;8.500;2023-02-26T03:48:40;-1.50;99.90
38241;DHT22;24037;49.536;8.500;2023-02-26T03:51:09;-1.60;99.90
38241;DHT22;24037;49.536;8.500;2023-02-26T03:54:02;-1.70;99.90
38241;DHT22;24037;49.536;8.500;2023-02-26T03:56:39;-1.80;99.90
38241;DHT22;24037;49.536;8.500;2023-02-26T03:59:25;-1.80;99.90
38241;DHT22;24037;49.536;8.500;2023-02-26T04:02:09;-1.80;99.90
38241;DHT22;24037;49.536;8.500;2023-02-26T04:04:44;-1.80;99.90
38241;DHT22;24037;49.536;8.500;2023-02-26T04:07:13;-1.80;99.90
38241;DHT22;24037;49.536;8.500;2023-02-26T04:09:40;-1.80;99.90
38241;DHT22;24037;49.536;8.500;2023-02-26T04:12:07;-1.90;99.90
38241;DHT22;24037;49.536;8.500;2023-02-26T04:14:33;-1.90;99.90
38241;DHT22;24037;49.536;8.500;2023-02-26T04:16:59;-1.90;99.90
38241;DHT22;24037;49.536;8.500;2023-02-26T04:19:25;-1.90;99.90
38241;DHT22;24037;49.536;8.500;2023-02-26T04:21:52;-1.90;99.90
38241;DHT22;24037;49.536;8.500;2023-02-26T04:24:18;-1.90;99.90
38241;DHT22;24037;49.536;8.500;2023-02-26T04:26:44;-2.00;99.90
38241;DHT22;24037;49.536;8.500;2023-02-26T04:29:10;-2.10;99.90
38241;DHT22;24037;49.536;8.500;2023-02-26T04:31:37;-2.10;99.90
38241;DHT22;24037;49.536;8.500;2023-02-26T04:34:03;-2.00;99.90
38241;DHT22;24037;49.536;8.500;2023-02-26T04:36:29;-2.10;99.90
38241;DHT22;24037;49.536;8.500;2023-02-26T04:38:57;-2.00;99.90
38241;DHT22;24037;49.536;8.500;2023-02-26T04:41:23;-2.00;99.90
38241;DHT22;24037;49.536;8.500;2023-02-26T04:43:49;-2.00;99.90
38241;DHT22;24037;49.536;8.500;2023-02-26T04:46:30;-2.10;99.90
38241;DHT22;24037;49.536;8.500;2023-02-26T04:48:56;-2.00;99.90
38241;DHT22;24037;49.536;8.500;2023-02-26T04:51:22;-2.00;99.90
38241;DHT22;24037;49.536;8.500;2023-02-26T04:53:50;-2.00;99.90
38241;DHT22;24037;49.536;8.500;2023-02-26T04:56:16;-2.00;99.90
38241;DHT22;24037;49.536;8.500;2023-02-26T04:58:44;-2.00;99.90
38241;DHT22;24037;49.536;8.500;2023-02-26T05:01:15;-1.90;99.90
38241;DHT22;24037;49.536;8.500;2023-02-26T05:03:41;-2.00;99.90
38241;DHT22;24037;49.536;8.500;2023-02-26T05:06:09;-2.00;99.90
38241;DHT22;24037;49.536;8.500;2023-02-26T05:08:35;-2.00;99.90
38241;DHT22;24037;49.536;8.500;2023-02-26T05:11:06;-2.00;99.90
38241;DHT22;24037;49.536;8.500;2023-02-26T05:13:32;-1.90;99.90
38241;DHT22;24037;49.536;8.500;2023-02-26T05:15:58;-1.90;99.90
38241;DHT22;24037;49.536;8.500;2023-02-26T05:18:24;-1.90;99.90
38241;DHT22;24037;49.536;8.500;2023-02-26T05:20:53;-1.90;99.90
38241;DHT22;24037;49.536;8.500;2023-02-26T05:23:20;-2.00;99.90
38241;DHT22;24037;49.536;8.500;2023-02-26T05:25:46;-1.90;99.90
38241;DHT22;24037;49.536;8.500;2023-02-26T05:28:13;-1.90;99.90
38241;DHT22;24037;49.536;8.500;2023-02-26T05:30:40;-1.90;99.90
38241;DHT22;24037;49.536;8.500;2023-02-26T05:33:06;-1.90;99.90
38241;DHT22;24037;49.536;8.500;2023-02-26T05:35:32;-2.00;99.90
38241;DHT22;24037;49.536;8.500;2023-02-26T05:37:58;-2.00;99.90
38241;DHT22;24037;49.536;8.500;2023-02-26T05:40:24;-1.90;99.90
38241;DHT22;24037;49.536;8.500;2023-02-26T05:42:50;-2.00;99.90
38241;DHT22;24037;49.536;8.500;2023-02-26T05:45:16;-2.00;99.90
38241;DHT22;24037;49.536;8.500;2023-02-26T05:47:43;-2.00;99.90
38241;DHT22;24037;49.536;8.500;2023-02-26T05:50:09;-2.00;99.90
38241;DHT22;24037;49.536;8.500;2023-02-26T05:52:35;-2.00;99.90
38241;DHT22;24037;49.536;8.500;2023-02-26T05:55:01;-2.00;99.90
38241;DHT22;24037;49.536;8.500;2023-02-26T05:57:27;-2.00;99.90
38241;DHT22;24037;49.536;8.500;2023-02-26T05:59:53;-2.10;99.90
38241;DHT22;24037;49.536;8.500;2023-02-26T06:02:19;-2.10;99.90
38241;DHT22;24037;49.536;8.500;2023-02-26T06:04:45;-2.20;99.90
38241;DHT22;24037;49.536;8.500;2023-02-26T06:07:11;-2.20;99.90
38241;DHT22;24037;49.536;8.500;2023-02-26T06:09:37;-2.30;99.90
38241;DHT22;24037;49.536;8.500;2023-02-26T06:12:04;-2.30;99.90
38241;DHT22;24037;49.536;8.500;2023-02-26T06:14:31;-2.30;99.90
38241;DHT22;24037;49.536;8.500;2023-02-26T06:16:57;-2.20;1.00
38241;DHT22;24037;49.536;8.500;2023-02-26T06:19:23;-2.20;99.90
38241;DHT22;24037;49.536;8.500;2023-02-26T06:21:49;-2.20;99.90
38241;DHT22;24037;49.536;8.500;2023-02-26T06:24:15;-2.20;99.90
38241;DHT22;24037;49.536;8.500;2023-02-26T06:26:41;-2.20;1.00
38241;DHT22;24037;49.536;8.500;2023-02-26T06:29:07;-2.10;99.90
38241;DHT22;24037;49.536;8.500;2023-02-26T06:31:33;-2.10;99.90
38241;DHT22;24037;49.536;8.500;2023-02-26T06:33:59;-2.10;99.90
38241;DHT22;24037;49.536;8.500;2023-02-26T06:36:25;-2.20;1.00
38241;DHT22;24037;49.536;8.500;2023-02-26T06:38:51;-2.20;1.00
38241;DHT22;24037;49.536;8.500;2023-02-26T06:41:17;-2.10;1.00
38241;DHT22;24037;49.536;8.500;2023-02-26T06:43:43;-2.10;1.00
38241;DHT22;24037;49.536;8.500;2023-02-26T06:46:09;-2.10;1.00
38241;DHT22;24037;49.536;8.500;2023-02-26T06:48:35;-2.10;1.00
38241;DHT22;24037;49.536;8.500;2023-02-26T06:51:01;-2.00;1.00
38241;DHT22;24037;49.536;8.500;2023-02-26T06:53:27;-2.00;1.00
38241;DHT22;24037;49.536;8.500;2023-02-26T06:55:53;-2.00;1.00
38241;DHT22;24037;49.536;8.500;2023-02-26T06:58:19;-1.90;1.00
38241;DHT22;24037;49.536;8.500;2023-02-26T07:00:45;-2.00;1.00
38241;DHT22;24037;49.536;8.500;2023-02-26T07:03:12;-2.00;1.00
38241;DHT22;24037;49.536;8.500;2023-02-26T07:05:38;-1.90;1.00
38241;DHT22;24037;49.536;8.500;2023-02-26T07:08:04;-1.80;1.00
38241;DHT22;24037;49.536;8.500;2023-02-26T07:10:31;-1.70;1.00
38241;DHT22;24037;49.536;8.500;2023-02-26T07:12:57;-1.90;1.00
38241;DHT22;24037;49.536;8.500;2023-02-26T07:15:23;-1.80;1.00
38241;DHT22;24037;49.536;8.500;2023-02-26T07:17:49;-1.80;1.00
38241;DHT22;24037;49.536;8.500;2023-02-26T07:20:15;-1.80;1.00
38241;DHT22;24037;49.536;8.500;2023-02-26T07:22:43;-1.60;1.00
38241;DHT22;24037;49.536;8.500;2023-02-26T07:25:09;-1.20;99.90
38241;DHT22;24037;49.536;8.500;2023-02-26T07:27:36;-0.90;99.90
38241;DHT22;24037;49.536;8.500;2023-02-26T07:30:02;-0.80;99.90
38241;DHT22;24037;49.536;8.500;2023-02-26T07:32:30;-0.70;99.90
38241;DHT22;24037;49.536;8.500;2023-02-26T07:34:56;-0.60;99.90
38241;DHT22;24037;49.536;8.500;2023-02-26T07:37:22;-0.50;99.90
38241;DHT22;24037;49.536;8.500;2023-02-26T07:39:48;-0.40;99.90
38241;DHT22;24037;49.536;8.500;2023-02-26T07:42:14;-0.30;99.90
38241;DHT22;24037;49.536;8.500;2023-02-26T07:44:41;-0.40;99.90
38241;DHT22;24037;49.536;8.500;2023-02-26T07:47:07;-0.50;99.90
38241;DHT22;24037;49.536;8.500;2023-02-26T07:49:33;-0.50;99.90
38241;DHT22;24037;49.536;8.500;2023-02-26T07:52:00;-0.50;99.90
38241;DHT22;24037;49.536;8.500;2023-02-26T07:54:26;-0.50;99.90
38241;DHT22;24037;49.536;8.500;2023-02-26T07:56:52;-0.40;99.90
38241;DHT22;24037;49.536;8.500;2023-02-26T07:59:18;-0.30;99.90
38241;DHT22;24037;49.536;8.500;2023-02-26T08:01:44;-0.30;99.90
38241;DHT22;24037;49.536;8.500;2023-02-26T08:04:10;-0.30;99.90
38241;DHT22;24037;49.536;8.500;2023-02-26T08:06:36;-0.30;99.90
38241;DHT22;24037;49.536;8.500;2023-02-26T08:09:02;-0.20;99.90
38241;DHT22;24037;49.536;8.500;2023-02-26T08:11:28;-0.10;99.90
38241;DHT22;24037;49.536;8.500;2023-02-26T08:13:54;-0.10;99.90
38241;DHT22;24037;49.536;8.500;2023-02-26T08:16:20;-0.10;99.90
38241;DHT22;24037;49.536;8.500;2023-02-26T08:18:46;0.00;99.90
38241;DHT22;24037;49.536;8.500;2023-02-26T08:21:12;0.20;99.90
38241;DHT22;24037;49.536;8.500;2023-02-26T08:23:38;0.40;99.90
38241;DHT22;24037;49.536;8.500;2023-02-26T08:26:06;0.80;99.90
38241;DHT22;24037;49.536;8.500;2023-02-26T08:28:32;1.20;99.90
38241;DHT22;24037;49.536;8.500;2023-02-26T08:30:58;0.80;99.90
38241;DHT22;24037;49.536;8.500;2023-02-26T08:33:24;0.80;99.90
38241;DHT22;24037;49.536;8.500;2023-02-26T08:35:50;0.90;99.90
38241;DHT22;24037;49.536;8.500;2023-02-26T08:38:16;0.90;99.90
38241;DHT22;24037;49.536;8.500;2023-02-26T08:40:42;1.00;99.90
38241;DHT22;24037;49.536;8.500;2023-02-26T08:43:08;1.20;99.90
38241;DHT22;24037;49.536;8.500;2023-02-26T08:45:36;1.30;99.90
38241;DHT22;24037;49.536;8.500;2023-02-26T08:48:02;1.70;99.90
38241;DHT22;24037;49.536;8.500;2023-02-26T08:50:28;1.80;99.90
38241;DHT22;24037;49.536;8.500;2023-02-26T08:52:54;1.60;99.90
38241;DHT22;24037;49.536;8.500;2023-02-26T08:55:20;1.80;99.90
38241;DHT22;24037;49.536;8.500;2023-02-26T08:57:46;1.70;99.90
38241;DHT22;24037;49.536;8.500;2023-02-26T09:00:13;1.90;99.90
38241;DHT22;24037;49.536;8.500;2023-02-26T09:02:41;2.00;99.90
38241;DHT22;24037;49.536;8.500;2023-02-26T09:05:07;2.00;99.90
38241;DHT22;24037;49.536;8.500;2023-02-26T09:07:33;1.90;99.90
38241;DHT22;24037;49.536;8.500;2023-02-26T09:09:59;1.90;99.90
38241;DHT22;24037;49.536;8.500;2023-02-26T09:12:25;2.00;99.90
38241;DHT22;24037;49.536;8.500;2023-02-26T09:14:51;2.50;99.90
38241;DHT22;24037;49.536;8.500;2023-02-26T09:17:18;2.40;99.90
38241;DHT22;24037;49.536;8.500;2023-02-26T09:19:44;2.00;99.90
38241;DHT22;24037;49.536;8.500;2023-02-26T09:22:10;1.90;99.90
38241;DHT22;24037;49.536;8.500;2023-02-26T09:24:36;1.80;99.90
38241;DHT22;24037;49.536;8.500;2023-02-26T09:27:02;1.80;99.90
38241;DHT22;24037;49.536;8.500;2023-02-26T09:29:28;1.80;99.90
38241;DHT22;24037;49.536;8.500;2023-02-26T09:31:54;1.90;99.90
38241;DHT22;24037;49.536;8.500;2023-02-26T09:34:20;1.80;99.90
38241;DHT22;24037;49.536;8.500;2023-02-26T09:36:46;1.60;99.90
38241;DHT22;24037;49.536;8.500;2023-02-26T09:39:12;1.60;99.90
38241;DHT22;24037;49.536;8.500;2023-02-26T09:41:48;1.90;99.90
38241;DHT22;24037;49.536;8.500;2023-02-26T09:46:44;2.20;99.90
38241;DHT22;24037;49.536;8.500;2023-02-26T09:51:51;2.20;99.90
38241;DHT22;24037;49.536;8.500;2023-02-26T09:54:20;2.30;99.90
38241;DHT22;24037;49.536;8.500;2023-02-26T09:56:46;2.50;99.90
38241;DHT22;24037;49.536;8.500;2023-02-26T09:59:12;2.50;99.90
38241;DHT22;24037;49.536;8.500;2023-02-26T10:01:40;2.60;99.90
38241;DHT22;24037;49.536;8.500;2023-02-26T10:04:25;2.80;99.90
38241;DHT22;24037;49.536;8.500;2023-02-26T10:09:42;2.50;99.90
38241;DHT22;24037;49.536;8.500;2023-02-26T10:12:16;2.60;99.90
38241;DHT22;24037;49.536;8.500;2023-02-26T10:20:13;2.50;99.90
38241;DHT22;24037;49.536;8.500;2023-02-26T10:25:09;2.70;99.90
38241;DHT22;24037;49.536;8.500;2023-02-26T10:27:46;3.10;99.90
38241;DHT22;24037;49.536;8.500;2023-02-26T10:30:27;3.10;99.90
38241;DHT22;24037;49.536;8.500;2023-02-26T10:35:41;2.90;99.90
38241;DHT22;24037;49.536;8.500;2023-02-26T10:38:10;3.00;99.90
38241;DHT22;24037;49.536;8.500;2023-02-26T10:46:07;3.20;99.90
38241;DHT22;24037;49.536;8.500;2023-02-26T10:48:41;3.30;99.90
38241;DHT22;24037;49.536;8.500;2023-02-26T10:51:10;3.00;99.90
38241;DHT22;24037;49.536;8.500;2023-02-26T10:53:37;3.20;99.90
38241;DHT22;24037;49.536;8.500;2023-02-26T10:58:38;3.10;99.90
38241;DHT22;24037;49.536;8.500;2023-02-26T11:01:06;2.90;99.90
38241;DHT22;24037;49.536;8.500;2023-02-26T11:03:40;3.10;99.90
38241;DHT22;24037;49.536;8.500;2023-02-26T11:06:07;3.10;99.90
38241;DHT22;24037;49.536;8.500;2023-02-26T11:08:41;3.00;99.90
38241;DHT22;24037;49.536;8.500;2023-02-26T11:11:08;3.00;99.90
38241;DHT22;24037;49.536;8.500;2023-02-26T11:13:36;2.70;99.90
38241;DHT22;24037;49.536;8.500;2023-02-26T11:16:04;2.60;99.90
38241;DHT22;24037;49.536;8.500;2023-02-26T11:18:38;2.50;99.90
38241;DHT22;24037;49.536;8.500;2023-02-26T11:21:05;2.70;99.90
38241;DHT22;24037;49.536;8.500;2023-02-26T11:23:31;2.90;99.90
38241;DHT22;24037;49.536;8.500;2023-02-26T11:26:07;2.90;99.90
38241;DHT22;24037;49.536;8.500;2023-02-26T11:28:43;3.10;99.90
38241;DHT22;24037;49.536;8.500;2023-02-26T11:31:10;3.30;99.90
38241;DHT22;24037;49.536;8.500;2023-02-26T11:33:43;3.60;99.90
38241;DHT22;24037;49.536;8.500;2023-02-26T11:36:13;3.70;99.90
38241;DHT22;24037;49.536;8.500;2023-02-26T11:38:42;3.40;99.90
38241;DHT22;24037;49.536;8.500;2023-02-26T11:41:10;3.20;99.90
38241;DHT22;24037;49.536;8.500;2023-02-26T11:43:44;3.10;99.90
38241;DHT22;24037;49.536;8.500;2023-02-26T11:46:11;2.90;99.90
38241;DHT22;24037;49.536;8.500;2023-02-26T11:51:04;2.90;99.90
38241;DHT22;24037;49.536;8.500;2023-02-26T11:53:35;2.90;99.90
38241;DHT22;24037;49.536;8.500;2023-02-26T11:56:11;3.00;99.90
38241;DHT22;24037;49.536;8.500;2023-02-26T11:58:39;3.30;99.90
38241;DHT22;24037;49.536;8.500;2023-02-26T12:01:06;3.30;99.90
38241;DHT22;24037;49.536;8.500;2023-02-26T12:03:36;3.30;99.90
38241;DHT22;24037;49.536;8.500;2023-02-26T12:06:06;3.50;99.90
38241;DHT22;24037;49.536;8.500;2023-02-26T12:08:33;3.40;99.90
38241;DHT22;24037;49.536;8.500;2023-02-26T12:11:18;3.30;99.90
38241;DHT22;24037;49.536;8.500;2023-02-26T12:18:50;3.50;99.90
38241;DHT22;24037;49.536;8.500;2023-02-26T12:29:22;4.00;99.90
38241;DHT22;24037;49.536;8.500;2023-02-26T12:46:57;4.00;99.90
38241;DHT22;24037;49.536;8.500;2023-02-26T12:49:38;4.20;99.90
38241;DHT22;24037;49.536;8.500;2023-02-26T13:02:27;4.10;99.90
38241;DHT22;24037;49.536;8.500;2023-02-26T13:05:06;3.90;99.90
38241;DHT22;24037;49.536;8.500;2023-02-26T13:07:38;4.00;99.90
38241;DHT22;24037;49.536;8.500;2023-02-26T13:12:56;4.10;99.90
38241;DHT22;24037;49.536;8.500;2023-02-26T13:20:34;3.90;99.90
38241;DHT22;24037;49.536;8.500;2023-02-26T13:23:03;4.10;99.90
38241;DHT22;24037;49.536;8.500;2023-02-26T13:28:00;4.20;99.90
38241;DHT22;24037;49.536;8.500;2023-02-26T13:30:29;4.20;99.90
38241;DHT22;24037;49.536;8.500;2023-02-26T13:32:57;4.30;99.90
38241;DHT22;24037;49.536;8.500;2023-02-26T13:35:35;4.20;99.90
38241;DHT22;24037;49.536;8.500;2023-02-26T13:38:11;4.00;99.90
38241;DHT22;24037;49.536;8.500;2023-02-26T13:40:46;3.80;99.90
38241;DHT22;24037;49.536;8.500;2023-02-26T13:43:20;3.90;99.90
38241;DHT22;24037;49.536;8.500;2023-02-26T13:48:24;3.80;99.90
38241;DHT22;24037;49.536;8.500;2023-02-26T13:51:01;3.80;99.90
38241;DHT22;24037;49.536;8.500;2023-02-26T13:56:15;3.80;99.90
38241;DHT22;24037;49.536;8.500;2023-02-26T13:58:43;3.90;99.90
38241;DHT22;24037;49.536;8.500;2023-02-26T14:01:14;3.90;99.90
38241;DHT22;24037;49.536;8.500;2023-02-26T14:03:50;3.80;99.90
38241;DHT22;24037;49.536;8.500;2023-02-26T14:06:23;3.70;99.90
38241;DHT22;24037;49.536;8.500;2023-02-26T14:08:54;3.80;99.90
38241;DHT22;24037;49.536;8.500;2023-02-26T14:14:04;3.60;99.90
38241;DHT22;24037;49.536;8.500;2023-02-26T14:16:32;3.70;99.90
38241;DHT22;24037;49.536;8.500;2023-02-26T14:19:03;3.90;99.90
38241;DHT22;24037;49.536;8.500;2023-02-26T14:23:56;3.90;99.90
38241;DHT22;24037;49.536;8.500;2023-02-26T14:26:22;3.80;99.90
38241;DHT22;24037;49.536;8.500;2023-02-26T14:28:57;3.90;99.90
38241;DHT22;24037;49.536;8.500;2023-02-26T14:32:14;4.00;99.90
38241;DHT22;24037;49.536;8.500;2023-02-26T14:37:00;3.90;99.90
38241;DHT22;24037;49.536;8.500;2023-02-26T14:41:54;3.90;99.90
38241;DHT22;24037;49.536;8.500;2023-02-26T14:44:23;3.90;99.90
38241;DHT22;24037;49.536;8.500;2023-02-26T14:46:50;4.10;99.90
38241;DHT22;24037;49.536;8.500;2023-02-26T14:49:18;4.10;99.90
38241;DHT22;24037;49.536;8.500;2023-02-26T14:51:54;4.10;99.90
38241;DHT22;24037;49.536;8.500;2023-02-26T14:54:34;4.10;99.90
38241;DHT22;24037;49.536;8.500;2023-02-26T14:59:54;3.90;99.90
38241;DHT22;24037;49.536;8.500;2023-02-26T15:02:32;3.60;99.90
38241;DHT22;24037;49.536;8.500;2023-02-26T15:10:43;3.70;99.90
38241;DHT22;24037;49.536;8.500;2023-02-26T15:15:52;3.60;99.90
38241;DHT22;24037;49.536;8.500;2023-02-26T15:23:40;3.30;99.90
38241;DHT22;24037;49.536;8.500;2023-02-26T15:26:07;3.30;99.90
38241;DHT22;24037;49.536;8.500;2023-02-26T15:28:37;3.30;99.90
38241;DHT22;24037;49.536;8.500;2023-02-26T15:31:04;3.30;99.90
38241;DHT22;24037;49.536;8.500;2023-02-26T15:33:31;3.30;99.90
38241;DHT22;24037;49.536;8.500;2023-02-26T15:35:58;3.20;99.90
38241;DHT22;24037;49.536;8.500;2023-02-26T15:38:24;3.30;99.90
38241;DHT22;24037;49.536;8.500;2023-02-26T15:40:52;3.50;99.90
38241;DHT22;24037;49.536;8.500;2023-02-26T15:43:22;3.50;99.90
38241;DHT22;24037;49.536;8.500;2023-02-26T15:45:51;3.50;99.90
38241;DHT22;24037;49.536;8.500;2023-02-26T15:48:19;3.70;99.90
38241;DHT22;24037;49.536;8.500;2023-02-26T15:50:46;3.70;99.90
38241;DHT22;24037;49.536;8.500;2023-02-26T15:53:16;3.50;99.90
38241;DHT22;24037;49.536;8.500;2023-02-26T15:55:47;3.40;99.90
38241;DHT22;24037;49.536;8.500;2023-02-26T15:58:17;3.20;99.90
38241;DHT22;24037;49.536;8.500;2023-02-26T16:00:50;3.00;99.90
38241;DHT22;24037;49.536;8.500;2023-02-26T16:03:16;3.00;99.90
38241;DHT22;24037;49.536;8.500;2023-02-26T16:05:42;3.00;99.90
38241;DHT22;24037;49.536;8.500;2023-02-26T16:08:09;3.10;99.90
38241;DHT22;24037;49.536;8.500;2023-02-26T16:10:40;3.00;99.90
38241;DHT22;24037;49.536;8.500;2023-02-26T16:13:09;3.20;99.90
38241;DHT22;24037;49.536;8.500;2023-02-26T16:15:39;3.10;99.90
38241;DHT22;24037;49.536;8.500;2023-02-26T16:18:15;3.10;99.90
38241;DHT22;24037;49.536;8.500;2023-02-26T16:20:45;3.10;99.90
38241;DHT22;24037;49.536;8.500;2023-02-26T16:23:16;3.10;99.90
38241;DHT22;24037;49.536;8.500;2023-02-26T16:25:50;3.10;99.90
38241;DHT22;24037;49.536;8.500;2023-02-26T16:28:19;3.00;99.90
38241;DHT22;24037;49.536;8.500;2023-02-26T16:30:46;3.00;99.90
38241;DHT22;24037;49.536;8.500;2023-02-26T16:33:14;2.90;99.90
38241;DHT22;24037;49.536;8.500;2023-02-26T16:35:45;2.90;99.90
38241;DHT22;24037;49.536;8.500;2023-02-26T16:38:25;2.90;99.90
38241;DHT22;24037;49.536;8.500;2023-02-26T16:40:58;2.90;99.90
38241;DHT22;24037;49.536;8.500;2023-02-26T16:43:32;2.80;99.90
38241;DHT22;24037;49.536;8.500;2023-02-26T16:46:00;2.80;99.90
38241;DHT22;24037;49.536;8.500;2023-02-26T16:48:40;2.70;99.90
38241;DHT22;24037;49.536;8.500;2023-02-26T16:51:09;2.80;99.90
38241;DHT22;24037;49.536;8.500;2023-02-26T16:53:40;2.70;99.90
38241;DHT22;24037;49.536;8.500;2023-02-26T16:56:15;2.70;99.90
38241;DHT22;24037;49.536;8.500;2023-02-26T16:58:46;2.60;99.90
38241;DHT22;24037;49.536;8.500;2023-02-26T17:01:16;2.60;99.90
38241;DHT22;24037;49.536;8.500;2023-02-26T17:03:47;2.70;99.90
38241;DHT22;24037;49.536;8.500;2023-02-26T17:06:16;2.60;99.90
38241;DHT22;24037;49.536;8.500;2023-02-26T17:08:49;2.70;99.90
38241;DHT22;24037;49.536;8.500;2023-02-26T17:11:26;2.60;99.90
38241;DHT22;24037;49.536;8.500;2023-02-26T17:13:56;2.70;99.90
38241;DHT22;24037;49.536;8.500;2023-02-26T17:16:27;2.70;99.90
38241;DHT22;24037;49.536;8.500;2023-02-26T17:18:54;2.70;99.90
38241;DHT22;24037;49.536;8.500;2023-02-26T17:21:20;2.70;99.90
38241;DHT22;24037;49.536;8.500;2023-02-26T17:23:46;2.60;99.90
38241;DHT22;24037;49.536;8.500;2023-02-26T17:26:12;2.60;99.90
38241;DHT22;24037;49.536;8.500;2023-02-26T17:28:39;2.60;99.90
38241;DHT22;24037;49.536;8.500;2023-02-26T17:31:06;2.60;99.90
38241;DHT22;24037;49.536;8.500;2023-02-26T17:33:32;2.40;99.90
38241;DHT22;24037;49.536;8.500;2023-02-26T17:35:59;2.40;99.90
38241;DHT22;24037;49.536;8.500;2023-02-26T17:38:25;2.40;99.90
38241;DHT22;24037;49.536;8.500;2023-02-26T17:40:52;2.30;99.90
38241;DHT22;24037;49.536;8.500;2023-02-26T17:43:20;2.30;99.90
38241;DHT22;24037;49.536;8.500;2023-02-26T17:45:46;2.20;99.90
38241;DHT22;24037;49.536;8.500;2023-02-26T17:48:13;2.20;99.90
38241;DHT22;24037;49.536;8.500;2023-02-26T17:50:41;2.20;99.90
38241;DHT22;24037;49.536;8.500;2023-02-26T17:53:09;2.20;99.90
38241;DHT22;24037;49.536;8.500;2023-02-26T17:55:35;2.30;99.90
38241;DHT22;24037;49.536;8.500;2023-02-26T17:58:11;2.30;99.90
38241;DHT22;24037;49.536;8.500;2023-02-26T18:00:38;2.20;99.90
38241;DHT22;24037;49.536;8.500;2023-02-26T18:03:07;2.30;99.90
38241;DHT22;24037;49.536;8.500;2023-02-26T18:05:33;2.30;99.90
38241;DHT22;24037;49.536;8.500;2023-02-26T18:08:11;2.30;99.90
38241;DHT22;24037;49.536;8.500;2023-02-26T18:10:41;2.30;99.90
38241;DHT22;24037;49.536;8.500;2023-02-26T18:13:07;2.30;99.90
38241;DHT22;24037;49.536;8.500;2023-02-26T18:15:34;2.30;99.90
38241;DHT22;24037;49.536;8.500;2023-02-26T18:17:59;2.20;99.90